sensor_id;sensor_type;location;lat;lon;timestamp;temperature;humidity
75161;DHT22;63738;50.096;8.716;2022-10-16T00:01:07;17.00;91.60
75161;DHT22;63738;50.096;8.716;2022-10-16T00:03:33;16.90;91.70
75161;DHT22;63738;50.096;8.716;2022-10-16T00:06:00;17.10;91.50
75161;DHT22;63738;50.096;8.716;2022-10-16T00:08:26;17.00;91.60
75161;DHT22;63738;50.096;8.716;2022-10-16T00:10:52;17.00;91.60
75161;DHT22;63738;50.096;8.716;2022-10-16T00:13:17;17.00;91.60
75161;DHT22;63738;50.096;8.716;2022-10-16T00:15:45;17.00;91.60
75161;DHT22;63738;50.096;8.716;2022-10-16T00:18:12;16.90;91.80
75161;DHT22;63738;50.096;8.716;2022-10-16T00:20:37;16.90;91.80
75161;DHT22;63738;50.096;8.716;2022-10-16T00:23:03;16.90;91.70
75161;DHT22;63738;50.096;8.716;2022-10-16T00:25:30;16.90;91.90
75161;DHT22;63738;50.096;8.716;2022-10-16T00:27:58;16.90;91.90
75161;DHT22;63738;50.096;8.716;2022-10-16T00:30:24;17.00;91.80
75161;DHT22;63738;50.096;8.716;2022-10-16T00:32:52;17.10;91.50
75161;DHT22;63738;50.096;8.716;2022-10-16T00:35:17;17.10;91.50
75161;DHT22;63738;50.096;8.716;2022-10-16T00:37:43;17.00;91.50
75161;DHT22;63738;50.096;8.716;2022-10-16T00:40:09;17.00;91.70
75161;DHT22;63738;50.096;8.716;2022-10-16T00:42:34;17.10;91.30
75161;DHT22;63738;50.096;8.716;2022-10-16T00:45:00;17.10;91.60
75161;DHT22;63738;50.096;8.716;2022-10-16T00:47:29;17.00;91.60
75161;DHT22;63738;50.096;8.716;2022-10-16T00:50:18;17.00;91.60
75161;DHT22;63738;50.096;8.716;2022-10-16T00:52:48;17.00;91.70
75161;DHT22;63738;50.096;8.716;2022-10-16T00:55:15;17.10;91.50
75161;DHT22;63738;50.096;8.716;2022-10-16T00:57:42;17.00;91.70
75161;DHT22;63738;50.096;8.716;2022-10-16T01:00:10;17.10;91.60
75161;DHT22;63738;50.096;8.716;2022-10-16T01:02:36;17.00;91.80
75161;DHT22;63738;50.096;8.716;2022-10-16T01:05:02;17.00;91.90
75161;DHT22;63738;50.096;8.716;2022-10-16T01:12:43;17.10;91.70
75161;DHT22;63738;50.096;8.716;2022-10-16T01:15:11;17.10;91.60
75161;DHT22;63738;50.096;8.716;2022-10-16T01:17:51;17.10;91.60
75161;DHT22;63738;50.096;8.716;2022-10-16T01:26:20;17.00;91.60
75161;DHT22;63738;50.096;8.716;2022-10-16T01:28:56;17.00;91.60
75161;DHT22;63738;50.096;8.716;2022-10-16T01:31:27;17.00;91.70
75161;DHT22;63738;50.096;8.716;2022-10-16T01:34:15;17.10;91.50
75161;DHT22;63738;50.096;8.716;2022-10-16T01:36:47;17.00;91.40
75161;DHT22;63738;50.096;8.716;2022-10-16T01:39:15;17.00;91.60
75161;DHT22;63738;50.096;8.716;2022-10-16T01:41:52;17.00;91.60
75161;DHT22;63738;50.096;8.716;2022-10-16T01:44:22;17.00;91.40
75161;DHT22;63738;50.096;8.716;2022-10-16T01:46:50;16.90;91.50
75161;DHT22;63738;50.096;8.716;2022-10-16T01:49:18;16.90;91.40
75161;DHT22;63738;50.096;8.716;2022-10-16T01:51:47;16.90;91.50
75161;DHT22;63738;50.096;8.716;2022-10-16T01:54:16;16.90;91.50
75161;DHT22;63738;50.096;8.716;2022-10-16T01:56:43;16.90;91.40
75161;DHT22;63738;50.096;8.716;2022-10-16T01:59:12;16.90;91.40
75161;DHT22;63738;50.096;8.716;2022-10-16T02:01:44;16.90;91.20
75161;DHT22;63738;50.096;8.716;2022-10-16T02:04:53;16.90;91.10
75161;DHT22;63738;50.096;8.716;2022-10-16T02:07:15;16.90;90.90
75161;DHT22;63738;50.096;8.716;2022-10-16T02:09:42;16.90;90.90
75161;DHT22;63738;50.096;8.716;2022-10-16T02:12:15;16.90;90.80
75161;DHT22;63738;50.096;8.716;2022-10-16T02:14:41;16.90;90.30
75161;DHT22;63738;50.096;8.716;2022-10-16T02:17:13;16.90;90.60
75161;DHT22;63738;50.096;8.716;2022-10-16T02:19:38;16.80;90.60
75161;DHT22;63738;50.096;8.716;2022-10-16T02:22:06;16.80;90.60
75161;DHT22;63738;50.096;8.716;2022-10-16T02:27:23;16.80;90.20
75161;DHT22;63738;50.096;8.716;2022-10-16T02:29:55;16.80;90.20
75161;DHT22;63738;50.096;8.716;2022-10-16T02:32:28;16.70;90.30
75161;DHT22;63738;50.096;8.716;2022-10-16T02:34:56;16.70;90.20
75161;DHT22;63738;50.096;8.716;2022-10-16T02:37:23;16.90;89.70
75161;DHT22;63738;50.096;8.716;2022-10-16T02:39:49;16.80;89.70
75161;DHT22;63738;50.096;8.716;2022-10-16T02:42:15;16.80;89.50
75161;DHT22;63738;50.096;8.716;2022-10-16T02:44:42;16.80;89.80
75161;DHT22;63738;50.096;8.716;2022-10-16T02:47:08;16.80;90.00
75161;DHT22;63738;50.096;8.716;2022-10-16T02:49:33;16.90;89.80
75161;DHT22;63738;50.096;8.716;2022-10-16T02:51:59;16.90;89.60
75161;DHT22;63738;50.096;8.716;2022-10-16T02:54:24;16.90;89.70
75161;DHT22;63738;50.096;8.716;2022-10-16T02:56:50;16.90;89.60
75161;DHT22;63738;50.096;8.716;2022-10-16T02:59:16;17.00;89.50
75161;DHT22;63738;50.096;8.716;2022-10-16T03:01:41;17.10;89.20
75161;DHT22;63738;50.096;8.716;2022-10-16T03:04:07;17.00;89.80
75161;DHT22;63738;50.096;8.716;2022-10-16T03:06:32;17.00;89.70
75161;DHT22;63738;50.096;8.716;2022-10-16T03:08:58;17.10;89.50
75161;DHT22;63738;50.096;8.716;2022-10-16T03:11:23;17.00;89.50
75161;DHT22;63738;50.096;8.716;2022-10-16T03:13:49;16.90;89.70
75161;DHT22;63738;50.096;8.716;2022-10-16T03:16:14;16.90;89.90
75161;DHT22;63738;50.096;8.716;2022-10-16T03:18:40;16.90;89.90
75161;DHT22;63738;50.096;8.716;2022-10-16T03:21:06;16.90;89.90
75161;DHT22;63738;50.096;8.716;2022-10-16T03:23:31;17.00;89.40
75161;DHT22;63738;50.096;8.716;2022-10-16T03:25:57;17.00;89.60
75161;DHT22;63738;50.096;8.716;2022-10-16T03:28:22;17.00;89.20
75161;DHT22;63738;50.096;8.716;2022-10-16T03:30:48;16.90;89.50
75161;DHT22;63738;50.096;8.716;2022-10-16T03:33:13;17.00;89.20
75161;DHT22;63738;50.096;8.716;2022-10-16T03:35:39;17.00;89.30
75161;DHT22;63738;50.096;8.716;2022-10-16T03:38:04;16.90;89.30
75161;DHT22;63738;50.096;8.716;2022-10-16T03:40:30;16.90;89.50
75161;DHT22;63738;50.096;8.716;2022-10-16T03:42:57;17.00;89.40
75161;DHT22;63738;50.096;8.716;2022-10-16T03:45:23;17.00;89.10
75161;DHT22;63738;50.096;8.716;2022-10-16T03:47:49;17.00;89.20
75161;DHT22;63738;50.096;8.716;2022-10-16T03:50:14;17.00;89.40
75161;DHT22;63738;50.096;8.716;2022-10-16T03:52:40;17.00;89.30
75161;DHT22;63738;50.096;8.716;2022-10-16T03:55:06;17.00;89.20
75161;DHT22;63738;50.096;8.716;2022-10-16T03:57:31;17.00;89.40
75161;DHT22;63738;50.096;8.716;2022-10-16T03:59:57;17.00;89.30
75161;DHT22;63738;50.096;8.716;2022-10-16T04:02:23;17.10;89.30
75161;DHT22;63738;50.096;8.716;2022-10-16T04:04:48;17.10;89.20
75161;DHT22;63738;50.096;8.716;2022-10-16T04:07:14;17.00;89.50
75161;DHT22;63738;50.096;8.716;2022-10-16T04:09:40;17.10;89.50
75161;DHT22;63738;50.096;8.716;2022-10-16T04:12:05;17.10;89.40
75161;DHT22;63738;50.096;8.716;2022-10-16T04:14:31;17.00;89.50
75161;DHT22;63738;50.096;8.716;2022-10-16T04:16:56;17.00;89.70
75161;DHT22;63738;50.096;8.716;2022-10-16T04:19:22;17.00;89.60
75161;DHT22;63738;50.096;8.716;2022-10-16T04:21:47;17.00;89.70
75161;DHT22;63738;50.096;8.716;2022-10-16T04:24:13;17.00;89.80
75161;DHT22;63738;50.096;8.716;2022-10-16T04:26:38;17.00;89.90
75161;DHT22;63738;50.096;8.716;2022-10-16T04:29:04;17.10;89.70
75161;DHT22;63738;50.096;8.716;2022-10-16T04:31:29;17.10;89.30
75161;DHT22;63738;50.096;8.716;2022-10-16T04:33:55;17.20;89.20
75161;DHT22;63738;50.096;8.716;2022-10-16T04:36:20;17.20;89.00
75161;DHT22;63738;50.096;8.716;2022-10-16T04:38:46;17.00;89.30
75161;DHT22;63738;50.096;8.716;2022-10-16T04:41:12;17.00;89.10
75161;DHT22;63738;50.096;8.716;2022-10-16T04:43:37;17.00;89.40
75161;DHT22;63738;50.096;8.716;2022-10-16T04:46:03;17.00;89.30
75161;DHT22;63738;50.096;8.716;2022-10-16T04:48:30;17.00;89.30
75161;DHT22;63738;50.096;8.716;2022-10-16T04:50:56;17.00;89.30
75161;DHT22;63738;50.096;8.716;2022-10-16T04:53:21;17.00;89.40
75161;DHT22;63738;50.096;8.716;2022-10-16T04:55:47;17.00;89.20
75161;DHT22;63738;50.096;8.716;2022-10-16T04:58:12;17.00;89.20
75161;DHT22;63738;50.096;8.716;2022-10-16T05:00:38;17.00;89.20
75161;DHT22;63738;50.096;8.716;2022-10-16T05:03:03;17.00;89.30
75161;DHT22;63738;50.096;8.716;2022-10-16T05:05:33;17.00;89.30
75161;DHT22;63738;50.096;8.716;2022-10-16T05:07:58;17.10;89.10
75161;DHT22;63738;50.096;8.716;2022-10-16T05:10:24;17.10;89.00
75161;DHT22;63738;50.096;8.716;2022-10-16T05:12:49;17.10;89.00
75161;DHT22;63738;50.096;8.716;2022-10-16T05:15:16;17.20;88.80
75161;DHT22;63738;50.096;8.716;2022-10-16T05:17:42;17.10;89.00
75161;DHT22;63738;50.096;8.716;2022-10-16T05:20:08;17.10;89.00
75161;DHT22;63738;50.096;8.716;2022-10-16T05:22:33;17.10;89.20
75161;DHT22;63738;50.096;8.716;2022-10-16T05:24:59;17.20;88.90
75161;DHT22;63738;50.096;8.716;2022-10-16T05:27:24;17.10;89.10
75161;DHT22;63738;50.096;8.716;2022-10-16T05:29:50;17.10;89.10
75161;DHT22;63738;50.096;8.716;2022-10-16T05:32:16;17.10;89.10
75161;DHT22;63738;50.096;8.716;2022-10-16T05:34:42;17.20;89.20
75161;DHT22;63738;50.096;8.716;2022-10-16T05:37:08;17.20;89.10
75161;DHT22;63738;50.096;8.716;2022-10-16T05:39:33;17.10;89.30
75161;DHT22;63738;50.096;8.716;2022-10-16T05:41:59;17.10;89.40
75161;DHT22;63738;50.096;8.716;2022-10-16T05:44:24;17.10;89.30
75161;DHT22;63738;50.096;8.716;2022-10-16T05:46:50;17.10;89.40
75161;DHT22;63738;50.096;8.716;2022-10-16T05:49:15;17.00;89.60
75161;DHT22;63738;50.096;8.716;2022-10-16T05:51:41;17.00;89.60
75161;DHT22;63738;50.096;8.716;2022-10-16T05:54:07;17.00;89.70
75161;DHT22;63738;50.096;8.716;2022-10-16T05:56:33;17.10;89.60
75161;DHT22;63738;50.096;8.716;2022-10-16T05:58:58;17.00;89.80
75161;DHT22;63738;50.096;8.716;2022-10-16T06:01:24;17.10;89.60
75161;DHT22;63738;50.096;8.716;2022-10-16T06:03:50;17.10;89.80
75161;DHT22;63738;50.096;8.716;2022-10-16T06:06:18;17.10;89.70
75161;DHT22;63738;50.096;8.716;2022-10-16T06:08:45;17.10;89.50
75161;DHT22;63738;50.096;8.716;2022-10-16T06:11:22;17.20;89.30
75161;DHT22;63738;50.096;8.716;2022-10-16T06:13:53;17.20;89.30
75161;DHT22;63738;50.096;8.716;2022-10-16T06:16:19;17.20;89.60
75161;DHT22;63738;50.096;8.716;2022-10-16T06:18:45;17.30;89.30
75161;DHT22;63738;50.096;8.716;2022-10-16T06:21:16;17.20;89.40
75161;DHT22;63738;50.096;8.716;2022-10-16T06:23:42;17.20;89.70
75161;DHT22;63738;50.096;8.716;2022-10-16T06:26:12;17.20;89.80
75161;DHT22;63738;50.096;8.716;2022-10-16T06:28:38;17.20;90.00
75161;DHT22;63738;50.096;8.716;2022-10-16T06:31:05;17.20;90.10
75161;DHT22;63738;50.096;8.716;2022-10-16T06:33:31;17.30;90.20
75161;DHT22;63738;50.096;8.716;2022-10-16T06:36:04;17.20;90.20
75161;DHT22;63738;50.096;8.716;2022-10-16T06:38:31;17.30;90.20
75161;DHT22;63738;50.096;8.716;2022-10-16T06:40:57;17.30;90.40
75161;DHT22;63738;50.096;8.716;2022-10-16T06:43:23;17.40;90.40
75161;DHT22;63738;50.096;8.716;2022-10-16T06:45:55;17.50;90.10
75161;DHT22;63738;50.096;8.716;2022-10-16T06:48:22;17.50;90.00
75161;DHT22;63738;50.096;8.716;2022-10-16T06:51:02;17.50;90.10
75161;DHT22;63738;50.096;8.716;2022-10-16T06:53:32;17.50;90.30
75161;DHT22;63738;50.096;8.716;2022-10-16T06:56:16;17.50;90.40
75161;DHT22;63738;50.096;8.716;2022-10-16T06:58:42;17.50;90.30
75161;DHT22;63738;50.096;8.716;2022-10-16T07:01:07;17.50;90.40
75161;DHT22;63738;50.096;8.716;2022-10-16T07:03:35;17.50;90.40
75161;DHT22;63738;50.096;8.716;2022-10-16T07:06:02;17.60;90.30
75161;DHT22;63738;50.096;8.716;2022-10-16T07:08:34;17.70;90.10
75161;DHT22;63738;50.096;8.716;2022-10-16T07:11:01;17.80;90.00
75161;DHT22;63738;50.096;8.716;2022-10-16T07:13:27;17.90;89.90
75161;DHT22;63738;50.096;8.716;2022-10-16T07:15:53;18.00;89.50
75161;DHT22;63738;50.096;8.716;2022-10-16T07:18:18;18.10;89.10
75161;DHT22;63738;50.096;8.716;2022-10-16T07:20:44;18.10;89.10
75161;DHT22;63738;50.096;8.716;2022-10-16T07:23:09;18.00;89.40
75161;DHT22;63738;50.096;8.716;2022-10-16T07:25:35;18.10;89.20
75161;DHT22;63738;50.096;8.716;2022-10-16T07:28:00;18.10;88.90
75161;DHT22;63738;50.096;8.716;2022-10-16T07:30:26;18.10;89.10
75161;DHT22;63738;50.096;8.716;2022-10-16T07:32:51;18.10;89.50
75161;DHT22;63738;50.096;8.716;2022-10-16T07:35:17;18.10;89.30
75161;DHT22;63738;50.096;8.716;2022-10-16T07:37:46;18.10;89.30
75161;DHT22;63738;50.096;8.716;2022-10-16T07:40:12;18.10;89.50
75161;DHT22;63738;50.096;8.716;2022-10-16T07:42:38;17.90;89.90
75161;DHT22;63738;50.096;8.716;2022-10-16T07:45:04;18.00;90.00
75161;DHT22;63738;50.096;8.716;2022-10-16T07:47:30;18.10;89.30
75161;DHT22;63738;50.096;8.716;2022-10-16T07:49:55;18.00;89.80
75161;DHT22;63738;50.096;8.716;2022-10-16T07:52:21;18.10;89.30
75161;DHT22;63738;50.096;8.716;2022-10-16T07:54:46;18.00;90.00
75161;DHT22;63738;50.096;8.716;2022-10-16T07:57:12;18.10;89.40
75161;DHT22;63738;50.096;8.716;2022-10-16T07:59:44;18.20;89.50
75161;DHT22;63738;50.096;8.716;2022-10-16T08:02:09;18.30;89.70
75161;DHT22;63738;50.096;8.716;2022-10-16T08:04:35;18.40;88.20
75161;DHT22;63738;50.096;8.716;2022-10-16T08:07:00;18.30;88.60
75161;DHT22;63738;50.096;8.716;2022-10-16T08:09:26;18.40;88.60
75161;DHT22;63738;50.096;8.716;2022-10-16T08:11:51;18.40;88.60
75161;DHT22;63738;50.096;8.716;2022-10-16T08:14:18;18.50;88.20
75161;DHT22;63738;50.096;8.716;2022-10-16T08:16:43;18.40;88.50
75161;DHT22;63738;50.096;8.716;2022-10-16T08:19:09;18.40;88.40
75161;DHT22;63738;50.096;8.716;2022-10-16T08:21:34;18.30;88.50
75161;DHT22;63738;50.096;8.716;2022-10-16T08:24:00;18.30;89.00
75161;DHT22;63738;50.096;8.716;2022-10-16T08:26:26;18.30;88.70
75161;DHT22;63738;50.096;8.716;2022-10-16T08:28:52;18.30;89.00
75161;DHT22;63738;50.096;8.716;2022-10-16T08:31:18;18.30;88.80
75161;DHT22;63738;50.096;8.716;2022-10-16T08:33:44;18.20;89.10
75161;DHT22;63738;50.096;8.716;2022-10-16T08:36:12;18.20;89.50
75161;DHT22;63738;50.096;8.716;2022-10-16T08:38:38;18.30;89.50
75161;DHT22;63738;50.096;8.716;2022-10-16T08:49:31;18.40;88.60
75161;DHT22;63738;50.096;8.716;2022-10-16T08:51:57;18.40;88.90
75161;DHT22;63738;50.096;8.716;2022-10-16T08:54:34;18.30;88.90
75161;DHT22;63738;50.096;8.716;2022-10-16T08:57:21;18.30;88.80
75161;DHT22;63738;50.096;8.716;2022-10-16T08:59:47;18.20;89.20
75161;DHT22;63738;50.096;8.716;2022-10-16T09:03:07;18.30;89.00
75161;DHT22;63738;50.096;8.716;2022-10-16T09:05:25;18.20;89.50
75161;DHT22;63738;50.096;8.716;2022-10-16T09:08:08;18.20;89.60
75161;DHT22;63738;50.096;8.716;2022-10-16T09:10:51;18.20;88.90
75161;DHT22;63738;50.096;8.716;2022-10-16T09:16:20;18.10;89.30
75161;DHT22;63738;50.096;8.716;2022-10-16T09:19:10;18.10;90.00
75161;DHT22;63738;50.096;8.716;2022-10-16T09:21:42;18.10;89.90
75161;DHT22;63738;50.096;8.716;2022-10-16T09:24:20;18.10;89.60
75161;DHT22;63738;50.096;8.716;2022-10-16T09:26:47;18.10;90.00
75161;DHT22;63738;50.096;8.716;2022-10-16T09:29:14;18.20;89.80
75161;DHT22;63738;50.096;8.716;2022-10-16T09:31:40;18.30;89.30
75161;DHT22;63738;50.096;8.716;2022-10-16T09:34:22;18.40;88.80
75161;DHT22;63738;50.096;8.716;2022-10-16T09:36:50;18.50;88.60
75161;DHT22;63738;50.096;8.716;2022-10-16T09:39:16;18.40;88.60
75161;DHT22;63738;50.096;8.716;2022-10-16T09:41:44;18.40;88.80
75161;DHT22;63738;50.096;8.716;2022-10-16T09:44:29;18.40;89.20
75161;DHT22;63738;50.096;8.716;2022-10-16T09:47:16;18.40;89.10
75161;DHT22;63738;50.096;8.716;2022-10-16T09:50:20;18.50;88.80
75161;DHT22;63738;50.096;8.716;2022-10-16T09:52:47;18.50;89.20
75161;DHT22;63738;50.096;8.716;2022-10-16T09:55:18;18.40;90.00
75161;DHT22;63738;50.096;8.716;2022-10-16T09:57:54;18.40;90.20
75161;DHT22;63738;50.096;8.716;2022-10-16T10:00:21;18.60;89.90
75161;DHT22;63738;50.096;8.716;2022-10-16T10:02:47;18.50;90.00
75161;DHT22;63738;50.096;8.716;2022-10-16T10:05:25;18.80;89.20
75161;DHT22;63738;50.096;8.716;2022-10-16T10:07:57;18.80;88.80
75161;DHT22;63738;50.096;8.716;2022-10-16T10:10:30;18.90;88.90
75161;DHT22;63738;50.096;8.716;2022-10-16T10:12:57;18.90;88.70
75161;DHT22;63738;50.096;8.716;2022-10-16T10:15:23;18.90;89.10
75161;DHT22;63738;50.096;8.716;2022-10-16T10:17:52;19.00;88.60
75161;DHT22;63738;50.096;8.716;2022-10-16T10:20:34;18.90;88.80
75161;DHT22;63738;50.096;8.716;2022-10-16T10:23:20;18.90;89.50
75161;DHT22;63738;50.096;8.716;2022-10-16T10:28:42;19.10;88.70
75161;DHT22;63738;50.096;8.716;2022-10-16T10:37:15;19.20;88.00
75161;DHT22;63738;50.096;8.716;2022-10-16T10:45:48;19.70;86.90
75161;DHT22;63738;50.096;8.716;2022-10-16T10:48:54;19.80;86.80
75161;DHT22;63738;50.096;8.716;2022-10-16T10:51:38;20.00;86.40
75161;DHT22;63738;50.096;8.716;2022-10-16T10:57:02;20.40;85.90
75161;DHT22;63738;50.096;8.716;2022-10-16T10:59:54;22.00;81.20
75161;DHT22;63738;50.096;8.716;2022-10-16T11:02:48;24.30;77.60
75161;DHT22;63738;50.096;8.716;2022-10-16T11:08:18;31.30;58.70
75161;DHT22;63738;50.096;8.716;2022-10-16T11:13:37;34.00;53.40
75161;DHT22;63738;50.096;8.716;2022-10-16T11:16:50;36.00;49.50
75161;DHT22;63738;50.096;8.716;2022-10-16T11:22:54;34.90;49.80
75161;DHT22;63738;50.096;8.716;2022-10-16T11:25:21;33.80;51.30
75161;DHT22;63738;50.096;8.716;2022-10-16T11:28:07;34.20;51.20
75161;DHT22;63738;50.096;8.716;2022-10-16T11:30:49;34.00;51.30
75161;DHT22;63738;50.096;8.716;2022-10-16T11:33:27;33.00;52.00
75161;DHT22;63738;50.096;8.716;2022-10-16T11:36:08;30.70;56.50
75161;DHT22;63738;50.096;8.716;2022-10-16T11:39:18;28.50;59.50
75161;DHT22;63738;50.096;8.716;2022-10-16T11:41:49;26.00;66.60
75161;DHT22;63738;50.096;8.716;2022-10-16T11:47:19;25.10;70.00
75161;DHT22;63738;50.096;8.716;2022-10-16T11:49:51;25.70;69.20
75161;DHT22;63738;50.096;8.716;2022-10-16T11:52:40;26.60;65.20
75161;DHT22;63738;50.096;8.716;2022-10-16T11:55:20;26.40;65.60
75161;DHT22;63738;50.096;8.716;2022-10-16T11:57:56;25.10;69.20
75161;DHT22;63738;50.096;8.716;2022-10-16T12:00:24;24.40;71.50
75161;DHT22;63738;50.096;8.716;2022-10-16T12:05:38;23.20;74.50
75161;DHT22;63738;50.096;8.716;2022-10-16T12:08:12;22.50;76.00
75161;DHT22;63738;50.096;8.716;2022-10-16T12:10:40;22.20;77.20
75161;DHT22;63738;50.096;8.716;2022-10-16T12:13:29;22.60;76.90
75161;DHT22;63738;50.096;8.716;2022-10-16T12:16:24;23.90;74.90
75161;DHT22;63738;50.096;8.716;2022-10-16T12:19:03;26.40;68.60
75161;DHT22;63738;50.096;8.716;2022-10-16T12:21:35;29.70;59.60
75161;DHT22;63738;50.096;8.716;2022-10-16T12:24:02;31.90;55.00
75161;DHT22;63738;50.096;8.716;2022-10-16T12:26:37;33.30;51.90
75161;DHT22;63738;50.096;8.716;2022-10-16T12:31:53;32.30;52.10
75161;DHT22;63738;50.096;8.716;2022-10-16T12:34:41;31.30;54.90
75161;DHT22;63738;50.096;8.716;2022-10-16T12:39:35;28.20;60.80
75161;DHT22;63738;50.096;8.716;2022-10-16T12:42:19;27.70;61.80
75161;DHT22;63738;50.096;8.716;2022-10-16T12:44:45;27.20;61.80
75161;DHT22;63738;50.096;8.716;2022-10-16T12:47:48;26.60;63.10
75161;DHT22;63738;50.096;8.716;2022-10-16T12:50:31;25.70;66.90
75161;DHT22;63738;50.096;8.716;2022-10-16T12:52:57;25.30;66.30
75161;DHT22;63738;50.096;8.716;2022-10-16T12:55:24;25.20;66.50
75161;DHT22;63738;50.096;8.716;2022-10-16T13:01:01;24.80;69.60
75161;DHT22;63738;50.096;8.716;2022-10-16T13:03:32;24.50;70.40
75161;DHT22;63738;50.096;8.716;2022-10-16T13:06:14;24.10;70.80
75161;DHT22;63738;50.096;8.716;2022-10-16T13:09:24;23.90;71.30
75161;DHT22;63738;50.096;8.716;2022-10-16T13:19:45;22.80;74.80
75161;DHT22;63738;50.096;8.716;2022-10-16T13:25:41;22.50;75.90
75161;DHT22;63738;50.096;8.716;2022-10-16T13:28:11;22.10;76.80
75161;DHT22;63738;50.096;8.716;2022-10-16T13:30:51;22.00;77.10
75161;DHT22;63738;50.096;8.716;2022-10-16T13:33:24;21.90;76.90
75161;DHT22;63738;50.096;8.716;2022-10-16T13:35:56;21.80;77.50
75161;DHT22;63738;50.096;8.716;2022-10-16T13:38:24;21.70;77.40
75161;DHT22;63738;50.096;8.716;2022-10-16T13:41:00;21.80;77.10
75161;DHT22;63738;50.096;8.716;2022-10-16T13:43:35;21.90;77.50
75161;DHT22;63738;50.096;8.716;2022-10-16T13:46:05;22.00;77.20
75161;DHT22;63738;50.096;8.716;2022-10-16T13:48:33;22.10;77.10
75161;DHT22;63738;50.096;8.716;2022-10-16T13:51:05;22.20;76.50
75161;DHT22;63738;50.096;8.716;2022-10-16T13:53:32;22.10;76.70
75161;DHT22;63738;50.096;8.716;2022-10-16T13:55:59;22.10;76.90
75161;DHT22;63738;50.096;8.716;2022-10-16T13:58:25;22.10;76.90
75161;DHT22;63738;50.096;8.716;2022-10-16T14:01:02;22.00;77.00
75161;DHT22;63738;50.096;8.716;2022-10-16T14:03:30;22.00;77.10
75161;DHT22;63738;50.096;8.716;2022-10-16T14:06:04;21.80;77.70
75161;DHT22;63738;50.096;8.716;2022-10-16T14:08:31;21.60;78.20
75161;DHT22;63738;50.096;8.716;2022-10-16T14:10:59;21.60;78.80
75161;DHT22;63738;50.096;8.716;2022-10-16T14:13:46;21.60;79.30
75161;DHT22;63738;50.096;8.716;2022-10-16T14:16:23;21.50;79.30
75161;DHT22;63738;50.096;8.716;2022-10-16T14:18:56;21.50;79.40
75161;DHT22;63738;50.096;8.716;2022-10-16T14:21:23;21.30;79.20
75161;DHT22;63738;50.096;8.716;2022-10-16T14:23:49;21.20;79.70
75161;DHT22;63738;50.096;8.716;2022-10-16T14:26:18;21.10;80.30
75161;DHT22;63738;50.096;8.716;2022-10-16T14:28:45;21.00;80.40
75161;DHT22;63738;50.096;8.716;2022-10-16T14:31:32;21.00;80.00
75161;DHT22;63738;50.096;8.716;2022-10-16T14:33:58;21.00;80.00
75161;DHT22;63738;50.096;8.716;2022-10-16T14:36:26;21.00;80.00
75161;DHT22;63738;50.096;8.716;2022-10-16T14:39:04;21.10;80.20
75161;DHT22;63738;50.096;8.716;2022-10-16T14:41:41;21.10;80.50
75161;DHT22;63738;50.096;8.716;2022-10-16T14:44:10;21.10;80.60
75161;DHT22;63738;50.096;8.716;2022-10-16T14:46:38;21.20;80.20
75161;DHT22;63738;50.096;8.716;2022-10-16T14:49:17;21.20;80.20
75161;DHT22;63738;50.096;8.716;2022-10-16T14:51:45;21.30;80.20
75161;DHT22;63738;50.096;8.716;2022-10-16T14:54:13;21.20;80.30
75161;DHT22;63738;50.096;8.716;2022-10-16T14:56:54;21.30;80.40
75161;DHT22;63738;50.096;8.716;2022-10-16T14:59:40;21.30;80.70
75161;DHT22;63738;50.096;8.716;2022-10-16T15:02:32;21.10;80.40
75161;DHT22;63738;50.096;8.716;2022-10-16T15:07:37;21.10;80.70
75161;DHT22;63738;50.096;8.716;2022-10-16T15:10:03;21.10;80.70
75161;DHT22;63738;50.096;8.716;2022-10-16T15:12:29;21.10;81.00
75161;DHT22;63738;50.096;8.716;2022-10-16T15:14:54;20.90;81.80
75161;DHT22;63738;50.096;8.716;2022-10-16T15:17:20;20.80;82.70
75161;DHT22;63738;50.096;8.716;2022-10-16T15:19:45;20.80;82.30
75161;DHT22;63738;50.096;8.716;2022-10-16T15:22:11;20.90;82.10
75161;DHT22;63738;50.096;8.716;2022-10-16T15:24:37;21.00;81.70
75161;DHT22;63738;50.096;8.716;2022-10-16T15:27:03;21.00;81.30
75161;DHT22;63738;50.096;8.716;2022-10-16T15:29:29;21.10;81.40
75161;DHT22;63738;50.096;8.716;2022-10-16T15:31:54;21.10;81.50
75161;DHT22;63738;50.096;8.716;2022-10-16T15:34:20;21.10;81.50
75161;DHT22;63738;50.096;8.716;2022-10-16T15:36:46;21.10;81.60
75161;DHT22;63738;50.096;8.716;2022-10-16T15:39:17;21.00;81.80
75161;DHT22;63738;50.096;8.716;2022-10-16T15:41:44;21.00;81.80
75161;DHT22;63738;50.096;8.716;2022-10-16T15:44:10;20.90;82.60
75161;DHT22;63738;50.096;8.716;2022-10-16T15:46:36;20.80;83.30
75161;DHT22;63738;50.096;8.716;2022-10-16T15:49:03;20.70;83.90
75161;DHT22;63738;50.096;8.716;2022-10-16T15:51:28;20.70;84.00
75161;DHT22;63738;50.096;8.716;2022-10-16T15:53:58;20.60;84.40
75161;DHT22;63738;50.096;8.716;2022-10-16T15:56:27;20.60;84.70
75161;DHT22;63738;50.096;8.716;2022-10-16T15:58:54;20.50;85.30
75161;DHT22;63738;50.096;8.716;2022-10-16T16:01:20;20.40;85.50
75161;DHT22;63738;50.096;8.716;2022-10-16T16:03:46;20.40;85.90
75161;DHT22;63738;50.096;8.716;2022-10-16T16:06:14;20.30;86.30
75161;DHT22;63738;50.096;8.716;2022-10-16T16:08:40;20.30;86.50
75161;DHT22;63738;50.096;8.716;2022-10-16T16:11:10;20.20;86.80
75161;DHT22;63738;50.096;8.716;2022-10-16T16:13:35;20.20;86.90
75161;DHT22;63738;50.096;8.716;2022-10-16T16:16:09;20.20;86.50
75161;DHT22;63738;50.096;8.716;2022-10-16T16:18:35;20.20;86.60
75161;DHT22;63738;50.096;8.716;2022-10-16T16:21:02;20.10;86.80
75161;DHT22;63738;50.096;8.716;2022-10-16T16:23:27;20.10;86.90
75161;DHT22;63738;50.096;8.716;2022-10-16T16:26:22;20.00;87.10
75161;DHT22;63738;50.096;8.716;2022-10-16T16:28:51;20.00;87.10
75161;DHT22;63738;50.096;8.716;2022-10-16T16:31:17;20.00;87.20
75161;DHT22;63738;50.096;8.716;2022-10-16T16:33:43;19.90;87.20
75161;DHT22;63738;50.096;8.716;2022-10-16T16:36:09;19.80;87.40
75161;DHT22;63738;50.096;8.716;2022-10-16T16:38:35;19.80;87.40
75161;DHT22;63738;50.096;8.716;2022-10-16T16:41:20;19.80;87.50
75161;DHT22;63738;50.096;8.716;2022-10-16T16:43:46;19.70;87.60
75161;DHT22;63738;50.096;8.716;2022-10-16T16:46:16;19.60;87.70
75161;DHT22;63738;50.096;8.716;2022-10-16T16:48:42;19.60;88.00
75161;DHT22;63738;50.096;8.716;2022-10-16T16:51:10;19.50;88.00
75161;DHT22;63738;50.096;8.716;2022-10-16T16:53:42;19.60;87.90
75161;DHT22;63738;50.096;8.716;2022-10-16T16:56:08;19.60;87.80
75161;DHT22;63738;50.096;8.716;2022-10-16T16:58:34;19.50;87.90
75161;DHT22;63738;50.096;8.716;2022-10-16T17:01:01;19.50;87.90
75161;DHT22;63738;50.096;8.716;2022-10-16T17:03:32;19.50;87.90
75161;DHT22;63738;50.096;8.716;2022-10-16T17:06:00;19.40;88.10
75161;DHT22;63738;50.096;8.716;2022-10-16T17:08:26;19.40;88.20